VTBD/DMK METAR and TAF weather

Enter ICAO airport designator
Station Type Date Time Source
VTBD METAR 2019/04/19 08:30 UTC NOAA

VTBD 190830Z 20008KT 150V240 9999 FEW020 37/24 Q1004 NOSIG


Station Type Date Time Source
VTBD Decoded METAR 2019/04/19 08:30 UTC NOAA

Don Muang, Thailand (VTBD) 13-55N 100-36E 12M
Apr 19, 2019 - 04:30 AM EDT / 2019.04.19 0830 UTC
Wind: from the SSW (200 degrees) at 9 MPH (8 KT) (direction variable):0
Visibility: greater than 7 mile(s):0
Sky conditions: mostly clear
Temperature: 98 F (37 C)
Heat index: 110.3 F (43.5 C):1
Dew Point: 75 F (24 C)
Relative Humidity: 47%
Pressure (altimeter): 29.65 in. Hg (1004 hPa)
ob: VTBD 190830Z 20008KT 150V240 9999 FEW020 37/24 Q1004 NOSIG
cycle: 8

Station Type Date Time Source
VTBD TAF 2019/04/19 06:37 UTC NOAA

TAF VTBD 190500Z 1906/2012 20008KT 9999 FEW020

Example: see airport list